createdAt,value
2022-08-23T00:02:23.445Z,7.80
2022-08-23T00:05:03.655Z,4.50
2022-08-23T00:07:43.932Z,4.70
2022-08-23T00:10:15.748Z,4.10
2022-08-23T00:12:46.955Z,7.40
2022-08-23T00:15:19.572Z,6.30
2022-08-23T00:17:48.094Z,5.90
2022-08-23T00:20:18.918Z,6.60
2022-08-23T00:22:47.643Z,6.50
2022-08-23T00:25:17.811Z,6.50
2022-08-23T00:27:45.939Z,8.30
2022-08-23T00:30:15.752Z,5.30
2022-08-23T00:32:44.375Z,6.50
2022-08-23T00:35:26.855Z,6.40
2022-08-23T00:38:32.222Z,5.00
2022-08-23T00:40:51.850Z,6.00
2022-08-23T00:44:00.491Z,6.90
2022-08-23T00:47:25.440Z,6.80
2022-08-23T00:50:39.247Z,6.40
2022-08-23T00:53:15.017Z,9.40
2022-08-23T00:55:47.798Z,5.70
2022-08-23T00:58:18.559Z,4.10
2022-08-23T01:00:50.087Z,6.90
2022-08-23T01:03:20.543Z,6.40
2022-08-23T01:06:11.046Z,8.50
2022-08-23T01:08:43.454Z,5.40
2022-08-23T01:11:33.379Z,6.30
2022-08-23T01:14:11.908Z,5.70
2022-08-23T01:17:05.372Z,6.50
2022-08-23T01:19:40.651Z,4.80
2022-08-23T01:22:41.592Z,6.90
2022-08-23T01:25:14.816Z,10.10
2022-08-23T01:27:45.528Z,7.20
2022-08-23T01:30:17.966Z,8.50
2022-08-23T01:37:54.606Z,5.10
2022-08-23T01:40:22.502Z,4.50
2022-08-23T01:42:50.394Z,5.70
2022-08-23T01:45:18.513Z,4.70
2022-08-23T01:47:46.670Z,7.20
2022-08-23T01:50:14.626Z,7.10
2022-08-23T01:52:46.578Z,4.50
2022-08-23T01:55:16.490Z,8.00
2022-08-23T01:57:45.893Z,6.40
2022-08-23T02:00:21.339Z,7.10
2022-08-23T02:02:49.689Z,4.30
2022-08-23T02:05:18.922Z,5.70
2022-08-23T02:07:48.252Z,4.80
2022-08-23T02:10:16.401Z,3.10
2022-08-23T02:12:44.921Z,5.90
2022-08-23T02:15:13.661Z,6.30
2022-08-23T02:17:42.286Z,4.80
2022-08-23T02:20:11.958Z,6.20
2022-08-23T02:22:40.270Z,3.20
2022-08-23T02:25:10.077Z,5.40
2022-08-23T02:27:38.522Z,5.20
2022-08-23T02:30:12.660Z,7.60
2022-08-23T02:32:42.120Z,6.60
2022-08-23T02:35:11.142Z,7.00
2022-08-23T02:37:39.038Z,7.60
2022-08-23T02:40:07.672Z,4.80
2022-08-23T02:42:35.700Z,5.50
2022-08-23T02:45:04.346Z,5.40
2022-08-23T02:47:32.154Z,5.60
2022-08-23T02:49:59.918Z,7.10
2022-08-23T02:52:27.851Z,8.80
2022-08-23T02:54:58.084Z,5.30
2022-08-23T02:57:27.473Z,7.00
2022-08-23T02:59:59.537Z,6.00
2022-08-23T03:02:28.172Z,7.50
2022-08-23T03:04:56.308Z,7.40
2022-08-23T03:07:24.380Z,6.90
2022-08-23T03:09:53.164Z,6.60
2022-08-23T03:12:21.170Z,7.60
2022-08-23T03:14:52.720Z,6.20
2022-08-23T03:17:21.017Z,8.10
2022-08-23T03:19:49.352Z,6.00
2022-08-23T03:22:19.270Z,7.70
2022-08-23T03:24:49.885Z,5.90
2022-08-23T03:27:19.621Z,6.10
2022-08-23T03:29:48.041Z,9.70
2022-08-23T03:32:16.658Z,6.60
2022-08-23T03:34:45.470Z,10.40
2022-08-23T03:37:14.018Z,9.00
2022-08-23T03:39:42.112Z,7.40
2022-08-23T03:42:10.352Z,9.20
2022-08-23T03:44:38.563Z,8.60
2022-08-23T03:47:07.040Z,8.50
2022-08-23T03:49:39.097Z,4.90
2022-08-23T03:52:13.534Z,7.70
2022-08-23T03:54:42.226Z,6.30
2022-08-23T03:57:10.276Z,9.40
2022-08-23T03:59:41.325Z,8.20
2022-08-23T04:02:11.207Z,11.10
2022-08-23T04:04:44.801Z,6.50
2022-08-23T04:07:38.590Z,8.90
2022-08-23T04:10:14.042Z,8.50
2022-08-23T04:12:44.560Z,7.30
2022-08-23T04:15:13.575Z,7.50
2022-08-23T04:17:44.292Z,7.70
2022-08-23T04:20:13.711Z,6.40
2022-08-23T04:22:42.451Z,12.30
2022-08-23T04:26:09.686Z,6.70
2022-08-23T04:29:33.512Z,6.60
2022-08-23T04:36:47.877Z,6.60
2022-08-23T04:39:20.221Z,9.40
2022-08-23T04:42:06.707Z,6.10
2022-08-23T04:44:34.938Z,8.70
2022-08-23T04:47:03.419Z,7.30
2022-08-23T04:49:31.326Z,7.30
2022-08-23T04:51:59.163Z,8.80
2022-08-23T04:54:27.127Z,7.30
2022-08-23T04:56:55.816Z,9.20
2022-08-23T04:59:24.092Z,7.30
2022-08-23T05:01:52.304Z,5.70
2022-08-23T05:04:20.701Z,5.70
2022-08-23T05:06:54.700Z,7.30
2022-08-23T05:09:25.170Z,7.70
2022-08-23T05:11:53.037Z,8.70
2022-08-23T05:14:21.303Z,9.50
2022-08-23T05:16:49.143Z,10.20
2022-08-23T05:19:16.986Z,8.30
2022-08-23T05:21:45.766Z,7.80
2022-08-23T05:24:14.071Z,9.50
2022-08-23T05:26:42.119Z,10.70
2022-08-23T05:29:09.934Z,8.30
2022-08-23T05:31:38.135Z,8.60
2022-08-23T05:34:06.635Z,7.00
2022-08-23T05:36:34.743Z,6.80
2022-08-23T05:39:02.699Z,7.40
2022-08-23T05:41:37.021Z,6.10
2022-08-23T05:44:06.488Z,6.90
2022-08-23T05:46:35.776Z,7.10
2022-08-23T05:49:05.320Z,11.40
2022-08-23T05:51:35.138Z,10.80
2022-08-23T05:54:07.755Z,10.10
2022-08-23T05:56:41.601Z,11.70
2022-08-23T05:59:13.641Z,7.10
2022-08-23T06:01:42.076Z,11.40
2022-08-23T06:04:12.557Z,10.40
2022-08-23T06:06:42.346Z,7.70
2022-08-23T06:09:16.642Z,10.00
2022-08-23T06:11:46.960Z,7.20
2022-08-23T06:14:16.047Z,10.10
2022-08-23T06:16:47.975Z,9.80
2022-08-23T06:19:16.340Z,9.80
2022-08-23T06:21:44.964Z,10.20
2022-08-23T06:24:13.445Z,11.90
2022-08-23T06:26:45.437Z,9.60
2022-08-23T06:29:20.227Z,13.10
2022-08-23T06:31:52.437Z,11.30
2022-08-23T06:34:25.534Z,12.20
2022-08-23T06:37:00.234Z,8.00
2022-08-23T06:39:30.721Z,9.30
2022-08-23T06:42:13.324Z,12.00
2022-08-23T06:44:50.947Z,12.10
2022-08-23T06:47:19.923Z,12.70
2022-08-23T06:49:57.818Z,16.20
2022-08-23T06:52:28.415Z,11.70
2022-08-23T06:54:58.707Z,9.50
2022-08-23T06:57:26.707Z,14.90
2022-08-23T06:59:54.513Z,12.10
2022-08-23T07:02:22.518Z,17.60
2022-08-23T07:04:54.116Z,12.00
2022-08-23T07:07:22.727Z,11.60
2022-08-23T07:09:50.724Z,15.40
2022-08-23T07:12:22.122Z,11.50
2022-08-23T07:14:50.277Z,16.10
2022-08-23T07:17:18.140Z,14.20
2022-08-23T07:19:46.717Z,11.40
2022-08-23T07:22:15.737Z,15.10
2022-08-23T07:24:44.271Z,16.00
2022-08-23T07:27:12.656Z,12.60
2022-08-23T07:29:44.820Z,13.00
2022-08-23T07:32:18.799Z,15.40
2022-08-23T07:34:52.524Z,13.90
2022-08-23T07:37:23.463Z,17.40
2022-08-23T07:39:51.411Z,14.30
2022-08-23T07:42:24.434Z,18.10
2022-08-23T07:44:53.868Z,16.50
2022-08-23T07:47:23.072Z,19.40
2022-08-23T07:49:51.372Z,16.90
2022-08-23T07:52:19.408Z,18.60
2022-08-23T07:54:48.457Z,20.10
2022-08-23T07:57:20.030Z,22.10
2022-08-23T07:59:49.094Z,23.60
2022-08-23T08:02:17.090Z,21.30
2022-08-23T08:04:45.123Z,25.00
2022-08-23T08:07:21.287Z,28.90
2022-08-23T08:10:06.294Z,24.90
2022-08-23T08:12:34.178Z,18.90
2022-08-23T08:15:02.549Z,24.80
2022-08-23T08:17:30.583Z,27.10
2022-08-23T08:19:58.756Z,23.50
2022-08-23T08:22:28.412Z,23.30
2022-08-23T08:24:56.603Z,27.30
2022-08-23T08:27:24.710Z,28.50
2022-08-23T08:29:52.614Z,27.20
2022-08-23T08:32:20.545Z,19.20
2022-08-23T08:34:48.631Z,22.90
2022-08-23T08:37:16.797Z,22.70
2022-08-23T08:39:47.811Z,22.10
2022-08-23T08:42:41.513Z,23.10
2022-08-23T08:45:21.027Z,22.00
2022-08-23T08:48:13.930Z,21.50
2022-08-23T08:50:48.736Z,25.30
2022-08-23T08:53:26.555Z,26.60
2022-08-23T08:56:05.368Z,23.40
2022-08-23T08:58:43.719Z,29.20
2022-08-23T09:01:11.810Z,28.60
2022-08-23T09:03:40.297Z,27.90
2022-08-23T09:06:16.727Z,28.90
2022-08-23T09:09:09.661Z,27.80
2022-08-23T09:11:59.242Z,30.90
2022-08-23T09:14:42.569Z,28.70
2022-08-23T09:17:25.285Z,27.20
2022-08-23T09:20:00.139Z,27.50
2022-08-23T09:22:40.539Z,25.40
2022-08-23T09:25:11.365Z,27.60
2022-08-23T09:27:43.119Z,25.10
2022-08-23T09:30:17.903Z,25.90
2022-08-23T09:32:50.290Z,30.40
2022-08-23T09:38:18.909Z,28.30
2022-08-23T09:40:50.716Z,28.30
2022-08-23T09:43:26.307Z,24.50
2022-08-23T09:46:01.570Z,27.40
2022-08-23T09:48:38.590Z,26.70
2022-08-23T09:51:37.643Z,31.50
2022-08-23T09:54:24.425Z,29.70
2022-08-23T09:57:08.568Z,27.30
2022-08-23T10:00:01.438Z,27.40
2022-08-23T10:05:44.060Z,29.30
2022-08-23T10:08:22.876Z,30.50
2022-08-23T10:10:56.144Z,25.70
2022-08-23T10:13:29.235Z,26.80
2022-08-23T10:16:42.349Z,31.70
2022-08-23T10:19:31.373Z,32.30
2022-08-23T10:22:21.792Z,28.20
2022-08-23T10:25:23.725Z,31.30
2022-08-23T10:28:35.701Z,32.10
2022-08-23T10:31:34.002Z,33.10
2022-08-23T10:34:50.534Z,28.30
2022-08-23T10:37:43.423Z,33.10
2022-08-23T10:40:56.830Z,30.60
2022-08-23T10:43:43.427Z,26.30
2022-08-23T10:46:22.900Z,24.60
2022-08-23T10:48:57.443Z,26.40
2022-08-23T10:51:35.755Z,26.70
2022-08-23T10:54:16.309Z,24.40
2022-08-23T10:56:48.802Z,21.00
2022-08-23T10:59:25.334Z,26.60
2022-08-23T11:02:01.470Z,23.60
2022-08-23T11:05:04.065Z,22.20
2022-08-23T11:07:38.419Z,20.60
2022-08-23T11:10:06.234Z,22.10
2022-08-23T11:13:08.324Z,19.80
2022-08-23T11:15:44.854Z,19.90
2022-08-23T11:18:40.532Z,23.50
2022-08-23T11:21:17.687Z,15.50
2022-08-23T11:23:55.587Z,18.20
2022-08-23T11:26:23.552Z,25.70
2022-08-23T11:28:53.815Z,24.50
2022-08-23T11:31:32.367Z,17.40
2022-08-23T11:34:07.344Z,17.40
2022-08-23T11:36:36.318Z,16.90
2022-08-23T11:39:13.802Z,21.40
2022-08-23T11:41:54.464Z,20.60
2022-08-23T11:44:40.345Z,16.30
2022-08-23T11:47:26.598Z,19.80
2022-08-23T11:50:22.085Z,18.00
2022-08-23T11:53:34.176Z,16.20
2022-08-23T11:56:44.412Z,18.30
2022-08-23T11:59:42.227Z,16.70
2022-08-23T12:02:43.829Z,19.30
2022-08-23T12:05:13.741Z,14.80
2022-08-23T12:08:04.349Z,16.20
2022-08-23T12:10:38.393Z,17.70
2022-08-23T12:13:22.220Z,19.70
2022-08-23T12:16:16.266Z,18.80
2022-08-23T12:18:49.428Z,18.40
2022-08-23T12:21:41.848Z,17.00
2022-08-23T12:24:33.005Z,17.80
2022-08-23T12:27:18.954Z,19.00
2022-08-23T12:30:13.634Z,19.10
2022-08-23T12:32:57.194Z,18.40
2022-08-23T12:35:48.717Z,19.40
2022-08-23T12:38:30.776Z,16.00
2022-08-23T12:40:58.863Z,20.40
2022-08-23T12:43:32.854Z,17.10
2022-08-23T12:46:02.897Z,20.40
2022-08-23T12:48:35.589Z,21.30
2022-08-23T12:51:11.184Z,17.00
2022-08-23T12:53:45.482Z,17.60
2022-08-23T12:56:21.460Z,20.10
2022-08-23T12:59:07.542Z,17.20
2022-08-23T13:01:42.081Z,16.90
2022-08-23T13:04:13.979Z,19.00
2022-08-23T13:06:57.563Z,19.80
2022-08-23T13:09:40.457Z,22.70
2022-08-23T13:12:12.866Z,20.40
2022-08-23T13:14:53.404Z,18.10
2022-08-23T13:17:27.560Z,19.70
2022-08-23T13:20:22.710Z,19.10
2022-08-23T13:23:09.560Z,20.40
2022-08-23T13:25:41.235Z,16.50
2022-08-23T13:28:27.363Z,19.10
2022-08-23T13:31:05.738Z,22.50
2022-08-23T13:33:34.978Z,19.70
2022-08-23T13:36:15.841Z,20.70
2022-08-23T13:38:44.933Z,15.80
2022-08-23T13:41:39.190Z,19.60
2022-08-23T13:44:09.321Z,22.30
2022-08-23T13:46:46.099Z,20.70
2022-08-23T13:49:28.635Z,16.30
2022-08-23T13:54:59.178Z,21.90
2022-08-23T13:57:30.084Z,22.30
2022-08-23T14:00:02.404Z,19.90
2022-08-23T14:02:30.844Z,20.10
2022-08-23T14:04:59.117Z,17.00
2022-08-23T14:07:27.103Z,17.90
2022-08-23T14:09:57.227Z,16.40
2022-08-23T14:12:28.680Z,17.10
2022-08-23T14:14:58.341Z,15.00
2022-08-23T14:17:31.014Z,15.90
2022-08-23T14:22:53.325Z,16.80
2022-08-23T14:25:24.250Z,17.70
2022-08-23T14:27:52.929Z,16.40
2022-08-23T14:30:37.109Z,16.80
2022-08-23T14:33:06.526Z,15.80
2022-08-23T14:35:37.730Z,15.20
2022-08-23T14:38:19.406Z,16.10
2022-08-23T14:41:01.193Z,14.90
2022-08-23T14:43:34.352Z,19.10
2022-08-23T14:46:06.572Z,17.40
2022-08-23T14:51:05.585Z,16.90
2022-08-23T14:53:36.985Z,19.50
2022-08-23T14:56:21.168Z,17.40
2022-08-23T14:58:52.317Z,18.10
2022-08-23T15:01:20.933Z,14.80
2022-08-23T15:03:52.586Z,16.90
2022-08-23T15:06:27.590Z,19.90
2022-08-23T15:08:57.198Z,19.50
2022-08-23T15:14:24.037Z,14.60
2022-08-23T15:19:40.203Z,16.60
2022-08-23T15:22:21.359Z,17.40
2022-08-23T15:24:54.248Z,18.80
2022-08-23T15:27:35.688Z,20.40
2022-08-23T15:30:19.250Z,20.00
2022-08-23T15:32:52.341Z,19.10
2022-08-23T15:35:24.842Z,18.60
2022-08-23T15:37:56.263Z,20.00
2022-08-23T15:40:25.869Z,14.90
2022-08-23T15:42:59.470Z,17.10
2022-08-23T15:45:29.878Z,19.00
2022-08-23T15:47:59.382Z,16.70
2022-08-23T15:50:33.354Z,16.20
2022-08-23T15:53:02.697Z,16.10
2022-08-23T15:55:32.975Z,16.60
2022-08-23T15:58:01.355Z,17.70
2022-08-23T16:00:29.600Z,19.00
2022-08-23T16:03:20.685Z,19.40
2022-08-23T16:05:49.165Z,18.50
2022-08-23T16:08:30.516Z,19.90
2022-08-23T16:10:59.171Z,20.50
2022-08-23T16:13:27.292Z,14.60
2022-08-23T16:15:58.049Z,17.20
2022-08-23T16:18:26.550Z,17.90
2022-08-23T16:20:54.545Z,22.00
2022-08-23T16:23:23.257Z,18.00
2022-08-23T16:25:51.299Z,20.00
2022-08-23T16:28:22.043Z,20.80
2022-08-23T16:30:50.037Z,23.30
2022-08-23T16:33:18.019Z,24.00
2022-08-23T16:35:46.287Z,17.40
2022-08-23T16:38:14.186Z,15.90
2022-08-23T16:40:42.408Z,15.40
2022-08-23T16:43:10.413Z,14.80
2022-08-23T16:45:38.449Z,22.60
2022-08-23T16:48:10.636Z,13.60
2022-08-23T16:50:41.038Z,15.20
2022-08-23T16:53:09.589Z,18.40
2022-08-23T16:55:40.022Z,21.00
2022-08-23T16:58:10.174Z,17.30
2022-08-23T17:00:41.666Z,16.30
2022-08-23T17:03:09.929Z,17.00
2022-08-23T17:05:39.886Z,18.10
2022-08-23T17:08:14.736Z,18.40
2022-08-23T17:10:45.474Z,17.60
2022-08-23T17:13:18.695Z,16.40
2022-08-23T17:15:47.078Z,19.10
2022-08-23T17:18:15.405Z,14.70
2022-08-23T17:20:49.345Z,18.20
2022-08-23T17:23:18.952Z,19.30
2022-08-23T17:25:51.100Z,22.10
2022-08-23T17:28:25.832Z,18.20
2022-08-23T17:30:54.702Z,20.50
2022-08-23T17:33:23.682Z,20.90
2022-08-23T17:35:51.613Z,19.30
2022-08-23T17:38:20.898Z,17.10
2022-08-23T17:40:49.770Z,19.40
2022-08-23T17:43:17.730Z,24.30
2022-08-23T17:45:48.610Z,19.40
2022-08-23T17:48:19.356Z,26.20
2022-08-23T17:53:18.442Z,19.00
2022-08-23T17:55:49.118Z,20.90
2022-08-23T17:58:20.632Z,19.10
2022-08-23T18:00:48.757Z,17.90
2022-08-23T18:03:17.080Z,20.30
2022-08-23T18:05:46.687Z,19.00
2022-08-23T18:08:15.150Z,22.60
2022-08-23T18:10:51.828Z,15.30
2022-08-23T18:13:24.217Z,19.70
2022-08-23T18:15:56.282Z,26.20
2022-08-23T18:18:32.952Z,16.10
2022-08-23T18:21:12.383Z,17.00
2022-08-23T18:23:55.299Z,19.20
2022-08-23T18:31:07.788Z,21.00
2022-08-23T18:34:37.353Z,21.90
2022-08-23T18:37:22.062Z,22.30
2022-08-23T18:40:09.534Z,21.90
2022-08-23T18:43:03.358Z,23.60
2022-08-23T18:45:33.068Z,26.10
2022-08-23T18:48:06.298Z,16.50
2022-08-23T18:51:14.030Z,17.30
2022-08-23T18:54:25.210Z,19.80
2022-08-23T18:57:01.161Z,18.40
2022-08-23T18:59:38.898Z,18.80
2022-08-23T19:02:14.671Z,21.40
2022-08-23T19:04:53.503Z,17.60
2022-08-23T19:07:22.214Z,21.00
2022-08-23T19:12:26.345Z,19.60
2022-08-23T19:28:04.880Z,20.60
2022-08-23T19:30:35.657Z,14.90
2022-08-23T19:33:15.865Z,14.70
2022-08-23T19:35:49.001Z,19.10
2022-08-23T19:38:19.337Z,15.10
2022-08-23T19:40:50.785Z,19.80
2022-08-23T19:43:19.461Z,18.50
2022-08-23T19:45:51.910Z,16.80
2022-08-23T19:48:23.577Z,15.10
2022-08-23T19:50:51.980Z,18.60
2022-08-23T19:53:26.919Z,18.20
2022-08-23T19:56:03.077Z,19.10
2022-08-23T19:58:31.632Z,17.70
2022-08-23T20:01:05.521Z,17.20
2022-08-23T20:07:45.827Z,13.10
2022-08-23T20:10:18.974Z,14.60
2022-08-23T20:15:42.009Z,14.70
2022-08-23T20:18:15.602Z,14.60
2022-08-23T20:20:46.805Z,18.10
2022-08-23T20:23:34.887Z,14.60
2022-08-23T20:26:03.210Z,18.70
2022-08-23T20:28:33.435Z,16.20
2022-08-23T20:31:20.991Z,13.80
2022-08-23T20:33:54.516Z,14.60
2022-08-23T20:36:23.355Z,12.30
2022-08-23T20:38:52.150Z,12.40
2022-08-23T20:41:23.246Z,13.80
2022-08-23T20:43:55.482Z,12.30
2022-08-23T20:46:23.956Z,15.20
2022-08-23T20:48:53.178Z,12.10
2022-08-23T20:51:24.845Z,14.80
2022-08-23T20:53:53.141Z,16.00
2022-08-23T20:56:21.214Z,13.90
2022-08-23T20:58:49.773Z,12.90
2022-08-23T21:01:21.286Z,14.90
2022-08-23T21:03:50.018Z,13.50
2022-08-23T21:06:25.509Z,12.10
2022-08-23T21:09:00.318Z,12.80
2022-08-23T21:11:29.326Z,17.30
2022-08-23T21:14:03.318Z,17.80
2022-08-23T21:16:32.454Z,12.00
2022-08-23T21:19:00.579Z,14.10
2022-08-23T21:21:30.800Z,13.10
2022-08-23T21:23:59.178Z,13.10
2022-08-23T21:26:38.921Z,12.80
2022-08-23T21:29:08.750Z,11.40
2022-08-23T21:31:37.331Z,12.90
2022-08-23T21:34:08.580Z,16.30
2022-08-23T21:36:42.283Z,13.00
2022-08-23T21:39:10.993Z,11.30
2022-08-23T21:41:43.417Z,14.90
2022-08-23T21:44:15.802Z,18.30
2022-08-23T21:46:45.201Z,16.70
2022-08-23T21:49:13.381Z,12.00
2022-08-23T21:51:43.058Z,12.10
2022-08-23T21:54:12.429Z,13.90
2022-08-23T21:56:41.950Z,13.40
2022-08-23T21:59:12.930Z,11.30
2022-08-23T22:01:42.995Z,13.60
2022-08-23T22:04:13.608Z,17.40
2022-08-23T22:06:44.159Z,12.60
2022-08-23T22:09:17.755Z,15.50
2022-08-23T22:11:50.448Z,9.20
2022-08-23T22:14:22.795Z,12.40
2022-08-23T22:16:55.179Z,13.00
2022-08-23T22:19:23.924Z,12.70
2022-08-23T22:21:54.950Z,15.60
2022-08-23T22:24:25.832Z,12.70
2022-08-23T22:26:55.553Z,11.40
2022-08-23T22:29:24.571Z,11.30
2022-08-23T22:31:53.572Z,15.70
2022-08-23T22:34:21.615Z,15.50
2022-08-23T22:36:52.325Z,15.10
2022-08-23T22:39:22.833Z,12.30
2022-08-23T22:41:51.149Z,14.30
2022-08-23T22:44:19.222Z,12.60
2022-08-23T22:46:47.716Z,13.30
2022-08-23T22:49:15.792Z,16.20
2022-08-23T22:51:43.875Z,12.90
2022-08-23T22:54:12.697Z,13.50
2022-08-23T22:56:52.482Z,13.70
2022-08-23T22:59:27.776Z,13.40
2022-08-23T23:02:03.330Z,14.50
2022-08-23T23:04:33.904Z,14.60
2022-08-23T23:07:02.199Z,13.80
2022-08-23T23:09:30.342Z,14.30
2022-08-23T23:11:58.458Z,20.00
2022-08-23T23:14:26.292Z,13.80
2022-08-23T23:25:47.416Z,15.50
2022-08-23T23:28:17.387Z,17.30
2022-08-23T23:30:50.595Z,12.80
2022-08-23T23:33:21.099Z,11.80
2022-08-23T23:35:51.882Z,13.40
2022-08-23T23:38:20.079Z,13.90
2022-08-23T23:40:48.122Z,12.80
2022-08-23T23:43:16.246Z,16.60
2022-08-23T23:45:44.629Z,16.40
2022-08-23T23:48:12.788Z,13.10
2022-08-23T23:50:46.721Z,16.60
2022-08-23T23:53:15.989Z,13.70
2022-08-23T23:55:48.447Z,16.80
2022-08-23T23:58:16.361Z,15.50
